createdAt,value
2023-03-06T00:04:16.018Z,62.37
2023-03-06T00:09:20.852Z,62.62
2023-03-06T00:14:23.890Z,62.96
2023-03-06T00:19:27.543Z,62.50
2023-03-06T00:24:32.640Z,62.82
2023-03-06T00:29:36.193Z,62.44
2023-03-06T00:34:39.702Z,62.49
2023-03-06T00:39:44.623Z,62.42
2023-03-06T00:44:48.627Z,62.49
2023-03-06T00:49:52.213Z,61.88
2023-03-06T00:54:56.973Z,62.44
2023-03-06T01:00:00.780Z,62.02
2023-03-06T01:05:04.312Z,61.77
2023-03-06T01:10:11.903Z,61.46
2023-03-06T01:15:16.155Z,61.38
2023-03-06T01:20:20.056Z,61.42
2023-03-06T01:25:25.047Z,61.32
2023-03-06T01:30:28.576Z,61.40
2023-03-06T01:35:32.204Z,61.51
2023-03-06T01:40:38.698Z,60.79
2023-03-06T01:46:31.054Z,60.75
2023-03-06T01:51:39.531Z,60.95
2023-03-06T01:56:47.991Z,60.61
2023-03-06T02:01:52.668Z,60.67
2023-03-06T02:06:56.838Z,60.46
2023-03-06T02:12:02.294Z,60.58
2023-03-06T02:17:05.768Z,61.04
2023-03-06T02:22:09.205Z,60.80
2023-03-06T02:27:16.162Z,60.72
2023-03-06T02:32:19.669Z,61.05
2023-03-06T02:37:24.387Z,60.59
2023-03-06T02:42:30.251Z,59.80
2023-03-06T02:47:34.798Z,60.34
2023-03-06T02:52:38.276Z,60.14
2023-03-06T02:57:43.051Z,60.12
2023-03-06T03:02:47.131Z,60.28
2023-03-06T03:07:50.636Z,60.11
2023-03-06T03:12:55.432Z,60.41
2023-03-06T03:17:58.447Z,59.80
2023-03-06T03:23:01.909Z,59.85
2023-03-06T03:28:06.791Z,59.87
2023-03-06T03:33:10.163Z,59.59
2023-03-06T03:38:13.505Z,59.68
2023-03-06T03:43:18.923Z,60.10
2023-03-06T03:48:22.754Z,60.19
2023-03-06T03:53:26.304Z,59.94
2023-03-06T03:58:31.256Z,59.94
2023-03-06T04:03:34.838Z,59.63
2023-03-06T04:08:38.314Z,59.82
2023-03-06T04:13:43.065Z,59.85
2023-03-06T04:18:46.597Z,59.94
2023-03-06T04:23:49.958Z,60.00
2023-03-06T04:28:55.772Z,59.78
2023-03-06T04:33:59.304Z,59.75
2023-03-06T04:39:03.163Z,59.94
2023-03-06T04:44:08.832Z,59.76
2023-03-06T04:49:12.273Z,59.51
2023-03-06T04:54:17.385Z,59.40
2023-03-06T04:59:23.577Z,59.09
2023-03-06T05:04:26.989Z,59.09
2023-03-06T05:09:30.800Z,58.50
2023-03-06T05:14:35.840Z,58.54
2023-03-06T05:19:39.420Z,57.92
2023-03-06T05:24:43.169Z,57.10
2023-03-06T05:29:48.266Z,56.71
2023-03-06T05:34:52.037Z,55.72
2023-03-06T05:39:55.579Z,54.46
2023-03-06T05:45:00.748Z,54.83
2023-03-06T05:50:05.965Z,54.56
2023-03-06T05:55:12.013Z,54.66
2023-03-06T06:00:19.150Z,54.15
2023-03-06T06:05:22.727Z,53.59
2023-03-06T06:10:26.211Z,51.60
2023-03-06T06:15:30.987Z,49.42
2023-03-06T06:20:34.375Z,47.60
2023-03-06T06:25:38.593Z,45.11
2023-03-06T06:30:43.354Z,46.21
2023-03-06T06:35:46.884Z,47.55
2023-03-06T06:41:26.850Z,48.35
2023-03-06T06:46:49.733Z,47.76
2023-03-06T06:51:38.914Z,48.18
2023-03-06T06:56:42.450Z,48.47
2023-03-06T07:01:47.499Z,47.24
2023-03-06T07:06:50.840Z,48.92
2023-03-06T07:11:54.209Z,49.39
2023-03-06T07:17:01.697Z,48.78
2023-03-06T07:22:05.473Z,48.70
2023-03-06T07:27:09.029Z,48.00
2023-03-06T07:32:14.090Z,45.33
2023-03-06T07:37:17.535Z,44.26
2023-03-06T07:42:21.216Z,45.50
2023-03-06T07:47:26.246Z,45.48
2023-03-06T07:52:29.846Z,47.21
2023-03-06T07:57:34.580Z,47.42
2023-03-06T08:02:39.612Z,47.78
2023-03-06T08:07:43.248Z,48.40
2023-03-06T08:12:46.747Z,47.38
2023-03-06T08:17:52.504Z,47.30
2023-03-06T08:22:55.839Z,45.85
2023-03-06T08:27:59.464Z,44.40
2023-03-06T08:33:04.366Z,44.86
2023-03-06T08:38:07.578Z,45.63
2023-03-06T08:43:13.968Z,44.10
2023-03-06T08:48:18.982Z,42.62
2023-03-06T08:53:36.668Z,44.50
2023-03-06T08:58:45.406Z,43.80
2023-03-06T09:03:50.333Z,44.09
2023-03-06T09:08:53.900Z,46.01
2023-03-06T09:13:58.001Z,46.16
2023-03-06T09:19:02.962Z,47.08
2023-03-06T09:24:06.447Z,46.99
2023-03-06T09:29:10.359Z,45.88
2023-03-06T09:34:15.376Z,45.79
2023-03-06T09:39:18.409Z,45.02
2023-03-06T09:44:26.176Z,46.52
2023-03-06T09:49:50.950Z,44.65
2023-03-06T09:54:56.915Z,45.40
2023-03-06T10:00:04.749Z,45.43
2023-03-06T10:05:15.352Z,45.67
2023-03-06T10:10:23.408Z,44.84
2023-03-06T10:15:29.713Z,43.83
2023-03-06T10:20:43.741Z,43.33
2023-03-06T10:25:55.898Z,44.07
2023-03-06T10:31:04.644Z,44.16
2023-03-06T10:36:14.435Z,43.54
2023-03-06T10:41:28.650Z,44.22
2023-03-06T10:46:33.781Z,45.15
2023-03-06T10:51:38.596Z,44.66
2023-03-06T10:56:43.606Z,43.43
2023-03-06T11:01:49.014Z,43.72
2023-03-06T11:07:09.261Z,43.83
2023-03-06T11:12:26.663Z,44.03
2023-03-06T11:17:32.346Z,44.58
2023-03-06T11:22:41.366Z,44.19
2023-03-06T11:27:48.192Z,44.13
2023-03-06T11:32:56.830Z,44.39
2023-03-06T11:38:07.449Z,44.90
2023-03-06T11:43:20.560Z,45.68
2023-03-06T11:48:29.531Z,45.16
2023-03-06T11:53:37.273Z,45.54
2023-03-06T11:58:55.141Z,44.79
2023-03-06T12:04:25.912Z,45.68
2023-03-06T12:09:40.969Z,45.10
2023-03-06T12:14:50.075Z,44.53
2023-03-06T12:20:13.211Z,44.64
2023-03-06T12:25:31.462Z,44.63
2023-03-06T12:31:03.402Z,44.13
2023-03-06T12:36:31.849Z,44.42
2023-03-06T12:41:55.845Z,45.01
2023-03-06T12:47:03.422Z,45.42
2023-03-06T12:52:09.823Z,44.75
2023-03-06T12:57:16.815Z,44.89
2023-03-06T13:03:06.338Z,45.09
2023-03-06T13:08:36.164Z,45.72
2023-03-06T13:13:51.200Z,45.44
2023-03-06T13:18:57.207Z,45.83
2023-03-06T13:24:06.261Z,46.71
2023-03-06T13:29:42.905Z,46.33
2023-03-06T13:34:50.262Z,46.22
2023-03-06T13:40:16.018Z,45.04
2023-03-06T13:45:25.911Z,45.66
2023-03-06T13:50:40.003Z,45.32
2023-03-06T13:55:54.231Z,46.13
2023-03-06T14:01:24.260Z,46.11
2023-03-06T14:07:11.232Z,46.24
2023-03-06T14:12:20.299Z,46.03
2023-03-06T14:17:29.865Z,47.55
2023-03-06T14:22:34.764Z,47.45
2023-03-06T14:27:44.304Z,48.97
2023-03-06T14:32:48.275Z,48.96
2023-03-06T14:37:56.288Z,49.14
2023-03-06T14:43:20.748Z,49.80
2023-03-06T14:48:26.176Z,50.10
2023-03-06T14:53:33.547Z,50.83
2023-03-06T14:58:42.976Z,51.11
2023-03-06T15:03:50.784Z,51.22
2023-03-06T15:09:02.531Z,53.02
2023-03-06T15:14:06.432Z,52.44
2023-03-06T15:19:20.754Z,53.15
2023-03-06T15:24:37.554Z,54.58
2023-03-06T15:29:41.254Z,54.81
2023-03-06T15:34:44.653Z,54.82
2023-03-06T15:40:09.318Z,55.05
2023-03-06T15:45:18.190Z,55.40
2023-03-06T15:50:23.400Z,55.47
2023-03-06T15:55:28.530Z,56.65
2023-03-06T16:00:35.796Z,56.45
2023-03-06T16:05:40.242Z,56.41
2023-03-06T16:10:46.611Z,56.56
2023-03-06T16:15:51.944Z,56.97
2023-03-06T16:20:55.439Z,56.55
2023-03-06T16:26:00.556Z,56.43
2023-03-06T16:31:04.157Z,57.08
2023-03-06T16:36:14.211Z,57.02
2023-03-06T16:41:20.503Z,57.70
2023-03-06T16:46:26.754Z,57.53
2023-03-06T16:51:30.373Z,56.76
2023-03-06T16:56:35.354Z,56.83
2023-03-06T17:01:39.450Z,57.06
2023-03-06T17:06:43.460Z,57.50
2023-03-06T17:11:48.389Z,57.14
2023-03-06T17:16:52.231Z,58.12
2023-03-06T17:21:55.981Z,58.47
2023-03-06T17:27:00.914Z,58.40
2023-03-06T17:32:05.023Z,57.93
2023-03-06T17:37:08.586Z,58.18
2023-03-06T17:42:13.553Z,58.14
2023-03-06T17:47:17.014Z,58.48
2023-03-06T17:52:20.435Z,58.85
2023-03-06T17:57:25.232Z,58.94
2023-03-06T18:02:28.453Z,58.92
2023-03-06T18:07:32.159Z,58.07
2023-03-06T18:12:37.091Z,58.03
2023-03-06T18:17:40.640Z,58.70
2023-03-06T18:22:44.184Z,58.71
2023-03-06T18:27:49.001Z,58.93
2023-03-06T18:32:52.048Z,59.35
2023-03-06T18:37:55.789Z,58.89
2023-03-06T18:43:00.760Z,59.05
2023-03-06T18:48:05.103Z,58.71
2023-03-06T18:53:08.480Z,59.03
2023-03-06T18:58:13.376Z,58.86
2023-03-06T19:03:17.705Z,59.41
2023-03-06T19:08:21.223Z,58.93
2023-03-06T19:13:25.974Z,59.24
2023-03-06T19:18:29.890Z,59.44
2023-03-06T19:23:33.253Z,59.12
2023-03-06T19:28:40.327Z,59.02
2023-03-06T19:33:44.364Z,58.97
2023-03-06T19:38:52.783Z,59.24
2023-03-06T19:43:59.482Z,59.69
2023-03-06T19:49:09.755Z,59.74
2023-03-06T19:54:13.732Z,59.93
2023-03-06T19:59:18.516Z,59.58
2023-03-06T20:04:22.437Z,59.41
2023-03-06T20:09:25.862Z,59.55
2023-03-06T20:14:30.870Z,59.91
2023-03-06T20:19:34.358Z,60.07
2023-03-06T20:24:37.841Z,60.06
2023-03-06T20:29:45.054Z,60.13
2023-03-06T20:34:48.414Z,59.89
2023-03-06T20:39:52.796Z,59.66
2023-03-06T20:44:57.905Z,59.77
2023-03-06T20:50:03.795Z,59.41
2023-03-06T20:55:08.223Z,59.48
2023-03-06T21:00:14.340Z,59.37
2023-03-06T21:05:18.052Z,59.24
2023-03-06T21:10:21.450Z,59.35
2023-03-06T21:15:30.089Z,59.31
2023-03-06T21:20:33.651Z,58.94
2023-03-06T21:25:37.038Z,58.78
2023-03-06T21:30:41.949Z,58.92
2023-03-06T21:35:46.797Z,58.79
2023-03-06T21:40:50.574Z,58.27
2023-03-06T21:45:58.393Z,58.09
2023-03-06T21:51:07.146Z,58.14
2023-03-06T21:56:11.200Z,57.86
2023-03-06T22:01:19.272Z,58.30
2023-03-06T22:06:25.201Z,58.15
2023-03-06T22:11:31.615Z,58.23
2023-03-06T22:16:36.646Z,58.26
2023-03-06T22:21:40.268Z,57.88
2023-03-06T22:26:43.726Z,58.25
2023-03-06T22:31:48.793Z,58.52
2023-03-06T22:36:52.418Z,58.46
2023-03-06T22:41:56.746Z,57.92
2023-03-06T22:47:01.759Z,58.53
2023-03-06T22:52:05.285Z,58.07
2023-03-06T22:57:08.803Z,57.95
2023-03-06T23:02:13.705Z,57.66
2023-03-06T23:07:17.221Z,58.01
2023-03-06T23:12:20.596Z,57.84
2023-03-06T23:17:25.528Z,57.88
2023-03-06T23:22:29.375Z,57.79
2023-03-06T23:27:33.388Z,58.33
2023-03-06T23:32:38.347Z,58.61
2023-03-06T23:37:41.819Z,58.28
2023-03-06T23:42:45.262Z,58.80
2023-03-06T23:47:50.258Z,58.78
2023-03-06T23:52:54.480Z,58.75
2023-03-06T23:57:57.957Z,58.32
